sensor_id;sensor_type;location;lat;lon;timestamp;temperature;humidity
3713;DHT22;1872;51.406;6.856;2023-07-20T00:01:15;17.40;99.90
3713;DHT22;1872;51.406;6.856;2023-07-20T00:03:41;17.40;99.90
3713;DHT22;1872;51.406;6.856;2023-07-20T00:06:06;17.40;99.90
3713;DHT22;1872;51.406;6.856;2023-07-20T00:08:32;17.40;99.90
3713;DHT22;1872;51.406;6.856;2023-07-20T00:10:58;17.40;99.90
3713;DHT22;1872;51.406;6.856;2023-07-20T00:13:24;17.30;99.90
3713;DHT22;1872;51.406;6.856;2023-07-20T00:15:50;17.30;99.90
3713;DHT22;1872;51.406;6.856;2023-07-20T00:18:16;17.30;99.90
3713;DHT22;1872;51.406;6.856;2023-07-20T00:20:42;17.30;99.90
3713;DHT22;1872;51.406;6.856;2023-07-20T00:23:07;17.20;99.90
3713;DHT22;1872;51.406;6.856;2023-07-20T00:25:34;17.20;99.90
3713;DHT22;1872;51.406;6.856;2023-07-20T00:28:01;17.20;99.90
3713;DHT22;1872;51.406;6.856;2023-07-20T00:30:27;17.10;99.90
3713;DHT22;1872;51.406;6.856;2023-07-20T00:32:52;17.10;99.90
3713;DHT22;1872;51.406;6.856;2023-07-20T00:35:18;17.00;99.90
3713;DHT22;1872;51.406;6.856;2023-07-20T00:37:44;17.00;99.90
3713;DHT22;1872;51.406;6.856;2023-07-20T00:40:09;17.00;99.90
3713;DHT22;1872;51.406;6.856;2023-07-20T00:42:36;16.90;99.90
3713;DHT22;1872;51.406;6.856;2023-07-20T00:45:02;16.90;99.90
3713;DHT22;1872;51.406;6.856;2023-07-20T00:47:28;16.90;99.90
3713;DHT22;1872;51.406;6.856;2023-07-20T00:49:54;16.90;99.90
3713;DHT22;1872;51.406;6.856;2023-07-20T00:52:21;16.90;99.90
3713;DHT22;1872;51.406;6.856;2023-07-20T00:54:49;16.90;99.90
3713;DHT22;1872;51.406;6.856;2023-07-20T00:57:15;16.90;99.90
3713;DHT22;1872;51.406;6.856;2023-07-20T00:59:44;16.90;99.90
3713;DHT22;1872;51.406;6.856;2023-07-20T01:02:10;16.90;99.90
3713;DHT22;1872;51.406;6.856;2023-07-20T01:04:36;16.90;99.90
3713;DHT22;1872;51.406;6.856;2023-07-20T01:07:17;16.90;99.90
3713;DHT22;1872;51.406;6.856;2023-07-20T01:12:30;16.90;99.90
3713;DHT22;1872;51.406;6.856;2023-07-20T01:14:58;16.90;99.90
3713;DHT22;1872;51.406;6.856;2023-07-20T01:17:24;16.90;99.90
3713;DHT22;1872;51.406;6.856;2023-07-20T01:19:49;16.90;99.90
3713;DHT22;1872;51.406;6.856;2023-07-20T01:22:51;16.90;99.90
3713;DHT22;1872;51.406;6.856;2023-07-20T01:31:32;16.90;99.90
3713;DHT22;1872;51.406;6.856;2023-07-20T01:34:01;16.90;99.90
3713;DHT22;1872;51.406;6.856;2023-07-20T01:36:29;16.90;99.90
3713;DHT22;1872;51.406;6.856;2023-07-20T01:38:56;17.00;99.90
3713;DHT22;1872;51.406;6.856;2023-07-20T01:41:22;17.00;99.90
3713;DHT22;1872;51.406;6.856;2023-07-20T01:43:48;17.00;99.90
3713;DHT22;1872;51.406;6.856;2023-07-20T01:46:13;16.90;99.90
3713;DHT22;1872;51.406;6.856;2023-07-20T01:48:39;16.90;99.90
3713;DHT22;1872;51.406;6.856;2023-07-20T01:51:05;16.90;99.90
3713;DHT22;1872;51.406;6.856;2023-07-20T01:53:30;16.90;99.90
3713;DHT22;1872;51.406;6.856;2023-07-20T01:55:57;16.80;99.90
3713;DHT22;1872;51.406;6.856;2023-07-20T01:58:23;16.80;99.90
3713;DHT22;1872;51.406;6.856;2023-07-20T02:00:49;16.70;99.90
3713;DHT22;1872;51.406;6.856;2023-07-20T02:03:14;16.70;99.90
3713;DHT22;1872;51.406;6.856;2023-07-20T02:05:42;16.70;99.90
3713;DHT22;1872;51.406;6.856;2023-07-20T02:08:08;16.60;99.90
3713;DHT22;1872;51.406;6.856;2023-07-20T02:10:34;16.60;99.90
3713;DHT22;1872;51.406;6.856;2023-07-20T02:12:59;16.60;99.90
3713;DHT22;1872;51.406;6.856;2023-07-20T02:15:25;16.60;99.90
3713;DHT22;1872;51.406;6.856;2023-07-20T02:17:51;16.60;99.90
3713;DHT22;1872;51.406;6.856;2023-07-20T02:20:16;16.60;99.90
3713;DHT22;1872;51.406;6.856;2023-07-20T02:22:43;16.60;99.90
3713;DHT22;1872;51.406;6.856;2023-07-20T02:25:09;16.60;99.90
3713;DHT22;1872;51.406;6.856;2023-07-20T02:27:34;16.60;99.90
3713;DHT22;1872;51.406;6.856;2023-07-20T02:30:00;16.60;99.90
3713;DHT22;1872;51.406;6.856;2023-07-20T02:32:26;16.60;99.90
3713;DHT22;1872;51.406;6.856;2023-07-20T02:34:52;16.60;99.90
3713;DHT22;1872;51.406;6.856;2023-07-20T02:37:18;16.60;99.90
3713;DHT22;1872;51.406;6.856;2023-07-20T02:39:43;16.50;99.90
3713;DHT22;1872;51.406;6.856;2023-07-20T02:42:09;16.50;99.90
3713;DHT22;1872;51.406;6.856;2023-07-20T02:44:35;16.50;99.90
3713;DHT22;1872;51.406;6.856;2023-07-20T02:47:00;16.50;99.90
3713;DHT22;1872;51.406;6.856;2023-07-20T02:49:26;16.50;99.90
3713;DHT22;1872;51.406;6.856;2023-07-20T02:51:52;16.50;99.90
3713;DHT22;1872;51.406;6.856;2023-07-20T02:54:18;16.50;99.90
3713;DHT22;1872;51.406;6.856;2023-07-20T02:56:44;16.50;99.90
3713;DHT22;1872;51.406;6.856;2023-07-20T02:59:09;16.50;99.90
3713;DHT22;1872;51.406;6.856;2023-07-20T03:01:35;16.50;99.90
3713;DHT22;1872;51.406;6.856;2023-07-20T03:04:01;16.50;99.90
3713;DHT22;1872;51.406;6.856;2023-07-20T03:06:27;16.40;99.90
3713;DHT22;1872;51.406;6.856;2023-07-20T03:08:53;16.40;99.90
3713;DHT22;1872;51.406;6.856;2023-07-20T03:11:19;16.40;99.90
3713;DHT22;1872;51.406;6.856;2023-07-20T03:13:47;16.40;99.90
3713;DHT22;1872;51.406;6.856;2023-07-20T03:16:18;16.40;99.90
3713;DHT22;1872;51.406;6.856;2023-07-20T03:18:44;16.40;99.90
3713;DHT22;1872;51.406;6.856;2023-07-20T03:21:10;16.40;99.90
3713;DHT22;1872;51.406;6.856;2023-07-20T03:23:40;16.30;99.90
3713;DHT22;1872;51.406;6.856;2023-07-20T03:26:06;16.30;99.90
3713;DHT22;1872;51.406;6.856;2023-07-20T03:28:35;16.30;99.90
3713;DHT22;1872;51.406;6.856;2023-07-20T03:31:00;16.30;99.90
3713;DHT22;1872;51.406;6.856;2023-07-20T03:33:27;16.30;99.90
3713;DHT22;1872;51.406;6.856;2023-07-20T03:35:54;16.30;99.90
3713;DHT22;1872;51.406;6.856;2023-07-20T03:38:21;16.30;99.90
3713;DHT22;1872;51.406;6.856;2023-07-20T03:43:16;16.30;99.90
3713;DHT22;1872;51.406;6.856;2023-07-20T03:45:42;16.30;99.90
3713;DHT22;1872;51.406;6.856;2023-07-20T03:48:08;16.30;99.90
3713;DHT22;1872;51.406;6.856;2023-07-20T03:50:33;16.30;99.90
3713;DHT22;1872;51.406;6.856;2023-07-20T03:52:59;16.30;99.90
3713;DHT22;1872;51.406;6.856;2023-07-20T03:55:25;16.30;99.90
3713;DHT22;1872;51.406;6.856;2023-07-20T03:57:50;16.30;99.90
3713;DHT22;1872;51.406;6.856;2023-07-20T04:00:17;16.30;99.90
3713;DHT22;1872;51.406;6.856;2023-07-20T04:02:43;16.30;99.90
3713;DHT22;1872;51.406;6.856;2023-07-20T04:05:08;16.30;99.90
3713;DHT22;1872;51.406;6.856;2023-07-20T04:07:34;16.30;99.90
3713;DHT22;1872;51.406;6.856;2023-07-20T04:10:00;16.30;99.90
3713;DHT22;1872;51.406;6.856;2023-07-20T04:12:25;16.30;99.90
3713;DHT22;1872;51.406;6.856;2023-07-20T04:14:51;16.30;99.90
3713;DHT22;1872;51.406;6.856;2023-07-20T04:17:18;16.30;99.90
3713;DHT22;1872;51.406;6.856;2023-07-20T04:19:43;16.30;99.90
3713;DHT22;1872;51.406;6.856;2023-07-20T04:22:09;16.30;99.90
3713;DHT22;1872;51.406;6.856;2023-07-20T04:24:35;16.30;99.90
3713;DHT22;1872;51.406;6.856;2023-07-20T04:27:00;16.30;99.90
3713;DHT22;1872;51.406;6.856;2023-07-20T04:29:26;16.30;99.90
3713;DHT22;1872;51.406;6.856;2023-07-20T04:31:52;16.40;99.90
3713;DHT22;1872;51.406;6.856;2023-07-20T04:34:17;16.40;99.90
3713;DHT22;1872;51.406;6.856;2023-07-20T04:36:43;16.40;99.90
3713;DHT22;1872;51.406;6.856;2023-07-20T04:39:10;16.40;99.90
3713;DHT22;1872;51.406;6.856;2023-07-20T04:41:35;16.40;99.90
3713;DHT22;1872;51.406;6.856;2023-07-20T04:44:01;16.50;99.90
3713;DHT22;1872;51.406;6.856;2023-07-20T04:46:28;16.50;99.90
3713;DHT22;1872;51.406;6.856;2023-07-20T04:48:53;16.50;99.90
3713;DHT22;1872;51.406;6.856;2023-07-20T04:51:19;16.60;99.90
3713;DHT22;1872;51.406;6.856;2023-07-20T04:53:47;16.60;99.90
3713;DHT22;1872;51.406;6.856;2023-07-20T04:56:13;16.60;99.90
3713;DHT22;1872;51.406;6.856;2023-07-20T04:58:39;16.70;99.90
3713;DHT22;1872;51.406;6.856;2023-07-20T05:01:04;16.70;99.90
3713;DHT22;1872;51.406;6.856;2023-07-20T05:03:30;16.70;99.90
3713;DHT22;1872;51.406;6.856;2023-07-20T05:05:57;16.70;99.90
3713;DHT22;1872;51.406;6.856;2023-07-20T05:08:22;16.70;99.90
3713;DHT22;1872;51.406;6.856;2023-07-20T05:10:48;16.70;99.90
3713;DHT22;1872;51.406;6.856;2023-07-20T05:13:14;16.80;99.90
3713;DHT22;1872;51.406;6.856;2023-07-20T05:15:40;16.80;99.90
3713;DHT22;1872;51.406;6.856;2023-07-20T05:18:05;16.80;99.90
3713;DHT22;1872;51.406;6.856;2023-07-20T05:20:31;16.80;99.90
3713;DHT22;1872;51.406;6.856;2023-07-20T05:22:59;16.70;99.90
3713;DHT22;1872;51.406;6.856;2023-07-20T05:25:25;16.70;99.90
3713;DHT22;1872;51.406;6.856;2023-07-20T05:27:51;16.80;99.90
3713;DHT22;1872;51.406;6.856;2023-07-20T05:30:17;16.70;99.90
3713;DHT22;1872;51.406;6.856;2023-07-20T05:32:44;16.80;99.90
3713;DHT22;1872;51.406;6.856;2023-07-20T05:35:12;16.80;99.90
3713;DHT22;1872;51.406;6.856;2023-07-20T05:37:39;16.70;99.90
3713;DHT22;1872;51.406;6.856;2023-07-20T05:40:05;16.70;99.90
3713;DHT22;1872;51.406;6.856;2023-07-20T05:42:34;16.80;99.90
3713;DHT22;1872;51.406;6.856;2023-07-20T05:44:59;16.70;99.90
3713;DHT22;1872;51.406;6.856;2023-07-20T05:47:25;16.80;99.90
3713;DHT22;1872;51.406;6.856;2023-07-20T05:49:50;16.80;99.90
3713;DHT22;1872;51.406;6.856;2023-07-20T05:52:16;16.80;99.90
3713;DHT22;1872;51.406;6.856;2023-07-20T05:54:42;16.80;99.90
3713;DHT22;1872;51.406;6.856;2023-07-20T05:57:07;16.80;99.90
3713;DHT22;1872;51.406;6.856;2023-07-20T05:59:33;16.80;99.90
3713;DHT22;1872;51.406;6.856;2023-07-20T06:01:59;16.80;99.90
3713;DHT22;1872;51.406;6.856;2023-07-20T06:04:25;16.80;99.90
3713;DHT22;1872;51.406;6.856;2023-07-20T06:06:50;16.90;99.90
3713;DHT22;1872;51.406;6.856;2023-07-20T06:09:16;16.90;99.90
3713;DHT22;1872;51.406;6.856;2023-07-20T06:11:42;16.90;99.90
3713;DHT22;1872;51.406;6.856;2023-07-20T06:14:07;16.90;99.90
3713;DHT22;1872;51.406;6.856;2023-07-20T06:16:33;16.90;99.90
3713;DHT22;1872;51.406;6.856;2023-07-20T06:19:00;16.90;99.90
3713;DHT22;1872;51.406;6.856;2023-07-20T06:21:26;16.90;99.90
3713;DHT22;1872;51.406;6.856;2023-07-20T06:23:51;16.90;99.90
3713;DHT22;1872;51.406;6.856;2023-07-20T06:26:17;17.00;99.90
3713;DHT22;1872;51.406;6.856;2023-07-20T06:28:43;17.00;99.90
3713;DHT22;1872;51.406;6.856;2023-07-20T06:31:09;17.20;99.90
3713;DHT22;1872;51.406;6.856;2023-07-20T06:33:34;17.30;99.90
3713;DHT22;1872;51.406;6.856;2023-07-20T06:36:00;17.40;99.90
3713;DHT22;1872;51.406;6.856;2023-07-20T06:38:26;17.50;99.90
3713;DHT22;1872;51.406;6.856;2023-07-20T06:40:52;17.70;99.90
3713;DHT22;1872;51.406;6.856;2023-07-20T06:43:18;17.80;99.90
3713;DHT22;1872;51.406;6.856;2023-07-20T06:45:43;17.80;99.90
3713;DHT22;1872;51.406;6.856;2023-07-20T06:48:09;17.90;99.90
3713;DHT22;1872;51.406;6.856;2023-07-20T06:50:35;17.90;99.90
3713;DHT22;1872;51.406;6.856;2023-07-20T06:53:01;17.90;99.90
3713;DHT22;1872;51.406;6.856;2023-07-20T06:55:29;17.90;99.90
3713;DHT22;1872;51.406;6.856;2023-07-20T06:57:55;17.90;99.90
3713;DHT22;1872;51.406;6.856;2023-07-20T07:00:21;17.90;99.90
3713;DHT22;1872;51.406;6.856;2023-07-20T07:02:46;17.90;99.90
3713;DHT22;1872;51.406;6.856;2023-07-20T07:05:12;17.90;99.90
3713;DHT22;1872;51.406;6.856;2023-07-20T07:07:40;18.00;99.90
3713;DHT22;1872;51.406;6.856;2023-07-20T07:10:06;18.00;99.90
3713;DHT22;1872;51.406;6.856;2023-07-20T07:12:32;18.00;99.90
3713;DHT22;1872;51.406;6.856;2023-07-20T07:14:58;18.00;99.90
3713;DHT22;1872;51.406;6.856;2023-07-20T07:17:24;18.00;99.90
3713;DHT22;1872;51.406;6.856;2023-07-20T07:19:51;18.10;99.90
3713;DHT22;1872;51.406;6.856;2023-07-20T07:22:19;18.30;99.90
3713;DHT22;1872;51.406;6.856;2023-07-20T07:24:44;18.50;99.90
3713;DHT22;1872;51.406;6.856;2023-07-20T07:27:10;18.60;99.90
3713;DHT22;1872;51.406;6.856;2023-07-20T07:29:36;18.90;99.90
3713;DHT22;1872;51.406;6.856;2023-07-20T07:32:02;19.10;99.90
3713;DHT22;1872;51.406;6.856;2023-07-20T07:34:28;19.40;99.90
3713;DHT22;1872;51.406;6.856;2023-07-20T07:36:53;19.80;99.90
3713;DHT22;1872;51.406;6.856;2023-07-20T07:39:19;20.20;99.90
3713;DHT22;1872;51.406;6.856;2023-07-20T07:41:45;20.60;99.90
3713;DHT22;1872;51.406;6.856;2023-07-20T07:44:11;20.90;99.90
3713;DHT22;1872;51.406;6.856;2023-07-20T07:46:37;21.20;99.90
3713;DHT22;1872;51.406;6.856;2023-07-20T07:49:03;21.40;99.90
3713;DHT22;1872;51.406;6.856;2023-07-20T07:51:29;21.60;99.90
3713;DHT22;1872;51.406;6.856;2023-07-20T07:53:55;21.40;99.90
3713;DHT22;1872;51.406;6.856;2023-07-20T07:56:21;21.30;99.90
3713;DHT22;1872;51.406;6.856;2023-07-20T07:58:50;21.00;99.90
3713;DHT22;1872;51.406;6.856;2023-07-20T08:01:17;20.80;99.90
3713;DHT22;1872;51.406;6.856;2023-07-20T08:03:44;20.70;99.90
3713;DHT22;1872;51.406;6.856;2023-07-20T08:06:13;20.80;99.90
3713;DHT22;1872;51.406;6.856;2023-07-20T08:08:39;20.80;99.90
3713;DHT22;1872;51.406;6.856;2023-07-20T08:11:05;20.80;99.90
3713;DHT22;1872;51.406;6.856;2023-07-20T08:13:31;21.20;99.90
3713;DHT22;1872;51.406;6.856;2023-07-20T08:15:58;21.50;99.90
3713;DHT22;1872;51.406;6.856;2023-07-20T08:18:24;21.80;99.90
3713;DHT22;1872;51.406;6.856;2023-07-20T08:20:49;22.10;99.90
3713;DHT22;1872;51.406;6.856;2023-07-20T08:23:15;22.40;99.90
3713;DHT22;1872;51.406;6.856;2023-07-20T08:25:41;22.70;99.90
3713;DHT22;1872;51.406;6.856;2023-07-20T08:28:16;23.00;99.90
3713;DHT22;1872;51.406;6.856;2023-07-20T08:30:46;23.30;99.90
3713;DHT22;1872;51.406;6.856;2023-07-20T08:33:16;23.50;99.90
3713;DHT22;1872;51.406;6.856;2023-07-20T08:35:45;23.80;99.90
3713;DHT22;1872;51.406;6.856;2023-07-20T08:38:10;23.80;99.90
3713;DHT22;1872;51.406;6.856;2023-07-20T08:40:40;23.70;99.90
3713;DHT22;1872;51.406;6.856;2023-07-20T08:43:06;23.50;99.90
3713;DHT22;1872;51.406;6.856;2023-07-20T08:45:36;23.30;99.90
3713;DHT22;1872;51.406;6.856;2023-07-20T08:48:05;23.00;99.90
3713;DHT22;1872;51.406;6.856;2023-07-20T08:50:31;23.00;99.90
3713;DHT22;1872;51.406;6.856;2023-07-20T08:52:58;23.10;99.90
3713;DHT22;1872;51.406;6.856;2023-07-20T08:55:29;23.40;99.90
3713;DHT22;1872;51.406;6.856;2023-07-20T08:57:56;23.60;99.90
3713;DHT22;1872;51.406;6.856;2023-07-20T09:00:23;23.70;99.90
3713;DHT22;1872;51.406;6.856;2023-07-20T09:02:55;23.80;99.90
3713;DHT22;1872;51.406;6.856;2023-07-20T09:05:23;24.00;99.90
3713;DHT22;1872;51.406;6.856;2023-07-20T09:07:52;23.90;99.90
3713;DHT22;1872;51.406;6.856;2023-07-20T09:10:23;23.70;99.90
3713;DHT22;1872;51.406;6.856;2023-07-20T09:12:49;23.20;99.90
3713;DHT22;1872;51.406;6.856;2023-07-20T09:15:15;22.80;99.90
3713;DHT22;1872;51.406;6.856;2023-07-20T09:17:49;22.50;99.90
3713;DHT22;1872;51.406;6.856;2023-07-20T09:20:17;22.30;99.90
3713;DHT22;1872;51.406;6.856;2023-07-20T09:22:44;22.20;99.90
3713;DHT22;1872;51.406;6.856;2023-07-20T09:25:14;22.40;99.90
3713;DHT22;1872;51.406;6.856;2023-07-20T09:27:42;22.60;99.90
3713;DHT22;1872;51.406;6.856;2023-07-20T09:30:08;22.70;99.90
3713;DHT22;1872;51.406;6.856;2023-07-20T09:35:15;22.80;99.90
3713;DHT22;1872;51.406;6.856;2023-07-20T09:37:57;22.80;99.90
3713;DHT22;1872;51.406;6.856;2023-07-20T09:40:25;22.70;99.90
3713;DHT22;1872;51.406;6.856;2023-07-20T09:42:52;22.40;99.90
3713;DHT22;1872;51.406;6.856;2023-07-20T09:45:17;22.10;99.90
3713;DHT22;1872;51.406;6.856;2023-07-20T09:47:43;21.90;99.90
3713;DHT22;1872;51.406;6.856;2023-07-20T09:50:09;21.60;99.90
3713;DHT22;1872;51.406;6.856;2023-07-20T09:52:41;21.40;99.90
3713;DHT22;1872;51.406;6.856;2023-07-20T09:55:08;21.30;99.90
3713;DHT22;1872;51.406;6.856;2023-07-20T09:57:34;21.20;99.90
3713;DHT22;1872;51.406;6.856;2023-07-20T10:00:05;21.20;99.90
3713;DHT22;1872;51.406;6.856;2023-07-20T10:02:42;21.30;99.90
3713;DHT22;1872;51.406;6.856;2023-07-20T10:05:10;21.30;99.90
3713;DHT22;1872;51.406;6.856;2023-07-20T10:07:40;21.40;99.90
3713;DHT22;1872;51.406;6.856;2023-07-20T10:10:09;21.40;99.90
3713;DHT22;1872;51.406;6.856;2023-07-20T10:12:37;21.60;99.90
3713;DHT22;1872;51.406;6.856;2023-07-20T10:15:15;21.50;99.90
3713;DHT22;1872;51.406;6.856;2023-07-20T10:17:56;21.40;99.90
3713;DHT22;1872;51.406;6.856;2023-07-20T10:20:23;21.40;99.90
3713;DHT22;1872;51.406;6.856;2023-07-20T10:22:52;21.40;99.90
3713;DHT22;1872;51.406;6.856;2023-07-20T10:25:20;21.40;99.90
3713;DHT22;1872;51.406;6.856;2023-07-20T10:27:48;21.50;99.90
3713;DHT22;1872;51.406;6.856;2023-07-20T10:30:14;21.70;99.90
3713;DHT22;1872;51.406;6.856;2023-07-20T10:32:40;21.70;99.90
3713;DHT22;1872;51.406;6.856;2023-07-20T10:35:17;21.70;99.90
3713;DHT22;1872;51.406;6.856;2023-07-20T10:37:54;21.70;99.90
3713;DHT22;1872;51.406;6.856;2023-07-20T10:40:39;21.70;99.90
3713;DHT22;1872;51.406;6.856;2023-07-20T10:43:06;21.70;99.90
3713;DHT22;1872;51.406;6.856;2023-07-20T10:45:39;21.60;99.90
3713;DHT22;1872;51.406;6.856;2023-07-20T10:48:13;21.50;99.90
3713;DHT22;1872;51.406;6.856;2023-07-20T10:50:40;21.50;99.90
3713;DHT22;1872;51.406;6.856;2023-07-20T10:53:11;21.70;99.90
3713;DHT22;1872;51.406;6.856;2023-07-20T10:55:38;22.00;99.90
3713;DHT22;1872;51.406;6.856;2023-07-20T10:58:11;22.20;99.90
3713;DHT22;1872;51.406;6.856;2023-07-20T11:00:54;22.40;99.90
3713;DHT22;1872;51.406;6.856;2023-07-20T11:03:33;22.40;99.90
3713;DHT22;1872;51.406;6.856;2023-07-20T11:06:00;22.30;99.90
3713;DHT22;1872;51.406;6.856;2023-07-20T11:08:45;22.20;99.90
3713;DHT22;1872;51.406;6.856;2023-07-20T11:11:32;22.10;99.90
3713;DHT22;1872;51.406;6.856;2023-07-20T11:14:03;22.10;99.90
3713;DHT22;1872;51.406;6.856;2023-07-20T11:19:06;22.10;99.90
3713;DHT22;1872;51.406;6.856;2023-07-20T11:21:38;22.10;99.90
3713;DHT22;1872;51.406;6.856;2023-07-20T11:24:07;22.00;99.90
3713;DHT22;1872;51.406;6.856;2023-07-20T11:26:42;22.00;99.90
3713;DHT22;1872;51.406;6.856;2023-07-20T11:29:08;21.90;99.90
3713;DHT22;1872;51.406;6.856;2023-07-20T11:31:38;21.90;99.90
3713;DHT22;1872;51.406;6.856;2023-07-20T11:34:04;21.90;99.90
3713;DHT22;1872;51.406;6.856;2023-07-20T11:36:30;21.90;99.90
3713;DHT22;1872;51.406;6.856;2023-07-20T11:38:58;21.90;99.90
3713;DHT22;1872;51.406;6.856;2023-07-20T11:41:24;21.90;99.90
3713;DHT22;1872;51.406;6.856;2023-07-20T11:43:51;21.90;99.90
3713;DHT22;1872;51.406;6.856;2023-07-20T11:46:24;21.90;99.90
3713;DHT22;1872;51.406;6.856;2023-07-20T11:48:56;21.80;99.60
3713;DHT22;1872;51.406;6.856;2023-07-20T11:51:22;21.80;99.90
3713;DHT22;1872;51.406;6.856;2023-07-20T11:53:48;21.90;99.90
3713;DHT22;1872;51.406;6.856;2023-07-20T11:56:14;22.00;99.20
3713;DHT22;1872;51.406;6.856;2023-07-20T11:58:46;22.00;99.10
3713;DHT22;1872;51.406;6.856;2023-07-20T12:01:13;22.10;99.00
3713;DHT22;1872;51.406;6.856;2023-07-20T12:03:39;22.10;99.00
3713;DHT22;1872;51.406;6.856;2023-07-20T12:06:14;22.20;98.90
3713;DHT22;1872;51.406;6.856;2023-07-20T12:08:44;22.10;98.40
3713;DHT22;1872;51.406;6.856;2023-07-20T12:11:10;22.10;98.20
3713;DHT22;1872;51.406;6.856;2023-07-20T12:13:42;22.00;98.10
3713;DHT22;1872;51.406;6.856;2023-07-20T12:16:19;22.00;98.20
3713;DHT22;1872;51.406;6.856;2023-07-20T12:18:45;22.00;98.40
3713;DHT22;1872;51.406;6.856;2023-07-20T12:21:11;22.00;98.50
3713;DHT22;1872;51.406;6.856;2023-07-20T12:23:41;21.90;98.60
3713;DHT22;1872;51.406;6.856;2023-07-20T12:26:08;21.90;98.50
3713;DHT22;1872;51.406;6.856;2023-07-20T12:28:41;21.90;98.50
3713;DHT22;1872;51.406;6.856;2023-07-20T12:31:08;21.90;98.50
3713;DHT22;1872;51.406;6.856;2023-07-20T12:33:33;21.90;98.20
3713;DHT22;1872;51.406;6.856;2023-07-20T12:36:00;21.80;98.00
3713;DHT22;1872;51.406;6.856;2023-07-20T12:38:26;21.80;97.90
3713;DHT22;1872;51.406;6.856;2023-07-20T12:40:53;21.70;97.10
3713;DHT22;1872;51.406;6.856;2023-07-20T12:43:21;21.70;95.90
3713;DHT22;1872;51.406;6.856;2023-07-20T12:45:47;21.70;96.50
3713;DHT22;1872;51.406;6.856;2023-07-20T12:48:12;21.80;97.20
3713;DHT22;1872;51.406;6.856;2023-07-20T12:50:38;21.90;97.30
3713;DHT22;1872;51.406;6.856;2023-07-20T12:53:04;21.90;97.40
3713;DHT22;1872;51.406;6.856;2023-07-20T12:55:30;22.00;97.90
3713;DHT22;1872;51.406;6.856;2023-07-20T12:57:55;22.10;98.20
3713;DHT22;1872;51.406;6.856;2023-07-20T13:00:21;22.10;98.20
3713;DHT22;1872;51.406;6.856;2023-07-20T13:02:51;22.20;97.60
3713;DHT22;1872;51.406;6.856;2023-07-20T13:05:16;22.10;97.40
3713;DHT22;1872;51.406;6.856;2023-07-20T13:07:42;22.10;97.80
3713;DHT22;1872;51.406;6.856;2023-07-20T13:10:10;22.20;98.20
3713;DHT22;1872;51.406;6.856;2023-07-20T13:12:36;22.30;98.20
3713;DHT22;1872;51.406;6.856;2023-07-20T13:15:03;22.30;97.80
3713;DHT22;1872;51.406;6.856;2023-07-20T13:17:32;22.30;97.50
3713;DHT22;1872;51.406;6.856;2023-07-20T13:19:58;22.30;97.80
3713;DHT22;1872;51.406;6.856;2023-07-20T13:22:24;22.30;97.40
3713;DHT22;1872;51.406;6.856;2023-07-20T13:24:50;22.30;97.10
3713;DHT22;1872;51.406;6.856;2023-07-20T13:27:19;22.30;97.20
3713;DHT22;1872;51.406;6.856;2023-07-20T13:29:45;22.30;97.40
3713;DHT22;1872;51.406;6.856;2023-07-20T13:32:15;22.30;97.40
3713;DHT22;1872;51.406;6.856;2023-07-20T13:34:40;22.30;98.00
3713;DHT22;1872;51.406;6.856;2023-07-20T13:37:06;22.40;98.00
3713;DHT22;1872;51.406;6.856;2023-07-20T13:39:32;22.40;98.30
3713;DHT22;1872;51.406;6.856;2023-07-20T13:41:58;22.40;98.30
3713;DHT22;1872;51.406;6.856;2023-07-20T13:44:23;22.40;98.30
3713;DHT22;1872;51.406;6.856;2023-07-20T13:46:49;22.30;97.90
3713;DHT22;1872;51.406;6.856;2023-07-20T13:49:17;22.30;97.80
3713;DHT22;1872;51.406;6.856;2023-07-20T13:51:44;22.20;97.40
3713;DHT22;1872;51.406;6.856;2023-07-20T13:54:11;22.30;97.30
3713;DHT22;1872;51.406;6.856;2023-07-20T13:56:39;22.30;97.40
3713;DHT22;1872;51.406;6.856;2023-07-20T13:59:04;22.30;97.40
3713;DHT22;1872;51.406;6.856;2023-07-20T14:01:30;22.40;97.50
3713;DHT22;1872;51.406;6.856;2023-07-20T14:03:58;22.40;97.60
3713;DHT22;1872;51.406;6.856;2023-07-20T14:06:24;22.40;97.50
3713;DHT22;1872;51.406;6.856;2023-07-20T14:08:50;22.50;97.30
3713;DHT22;1872;51.406;6.856;2023-07-20T14:11:16;22.60;98.00
3713;DHT22;1872;51.406;6.856;2023-07-20T14:13:42;22.60;97.70
3713;DHT22;1872;51.406;6.856;2023-07-20T14:16:08;22.70;97.60
3713;DHT22;1872;51.406;6.856;2023-07-20T14:21:55;22.90;98.20
3713;DHT22;1872;51.406;6.856;2023-07-20T14:24:49;22.90;97.70
3713;DHT22;1872;51.406;6.856;2023-07-20T14:27:14;22.90;96.80
3713;DHT22;1872;51.406;6.856;2023-07-20T14:29:40;22.90;97.20
3713;DHT22;1872;51.406;6.856;2023-07-20T14:32:06;22.80;97.70
3713;DHT22;1872;51.406;6.856;2023-07-20T14:34:33;22.80;97.60
3713;DHT22;1872;51.406;6.856;2023-07-20T14:37:00;22.70;97.40
3713;DHT22;1872;51.406;6.856;2023-07-20T14:39:26;22.70;97.50
3713;DHT22;1872;51.406;6.856;2023-07-20T14:41:52;22.70;97.80
3713;DHT22;1872;51.406;6.856;2023-07-20T14:44:18;22.70;97.70
3713;DHT22;1872;51.406;6.856;2023-07-20T14:46:47;22.80;97.80
3713;DHT22;1872;51.406;6.856;2023-07-20T14:49:12;22.80;97.80
3713;DHT22;1872;51.406;6.856;2023-07-20T14:51:38;22.80;97.50
3713;DHT22;1872;51.406;6.856;2023-07-20T14:54:09;22.80;97.40
3713;DHT22;1872;51.406;6.856;2023-07-20T14:56:38;22.80;98.00
3713;DHT22;1872;51.406;6.856;2023-07-20T14:59:03;22.80;97.60
3713;DHT22;1872;51.406;6.856;2023-07-20T15:01:34;22.80;97.70
3713;DHT22;1872;51.406;6.856;2023-07-20T15:03:59;22.80;97.60
3713;DHT22;1872;51.406;6.856;2023-07-20T15:06:26;22.70;97.00
3713;DHT22;1872;51.406;6.856;2023-07-20T15:08:53;22.60;96.30
3713;DHT22;1872;51.406;6.856;2023-07-20T15:11:19;22.50;96.00
3713;DHT22;1872;51.406;6.856;2023-07-20T15:13:44;22.50;96.20
3713;DHT22;1872;51.406;6.856;2023-07-20T15:16:10;22.50;96.40
3713;DHT22;1872;51.406;6.856;2023-07-20T15:18:36;22.50;95.90
3713;DHT22;1872;51.406;6.856;2023-07-20T15:21:02;22.50;95.70
3713;DHT22;1872;51.406;6.856;2023-07-20T15:23:28;22.50;95.40
3713;DHT22;1872;51.406;6.856;2023-07-20T15:25:53;22.50;95.20
3713;DHT22;1872;51.406;6.856;2023-07-20T15:28:19;22.50;95.40
3713;DHT22;1872;51.406;6.856;2023-07-20T15:30:45;22.50;96.00
3713;DHT22;1872;51.406;6.856;2023-07-20T15:33:10;22.50;95.90
3713;DHT22;1872;51.406;6.856;2023-07-20T15:35:36;22.50;95.40
3713;DHT22;1872;51.406;6.856;2023-07-20T15:38:02;22.50;95.70
3713;DHT22;1872;51.406;6.856;2023-07-20T15:40:27;22.60;95.90
3713;DHT22;1872;51.406;6.856;2023-07-20T15:42:53;22.50;95.40
3713;DHT22;1872;51.406;6.856;2023-07-20T15:45:20;22.50;95.10
3713;DHT22;1872;51.406;6.856;2023-07-20T15:47:45;22.40;94.70
3713;DHT22;1872;51.406;6.856;2023-07-20T15:50:11;22.40;94.10
3713;DHT22;1872;51.406;6.856;2023-07-20T15:52:37;22.30;94.60
3713;DHT22;1872;51.406;6.856;2023-07-20T15:55:05;22.30;95.30
3713;DHT22;1872;51.406;6.856;2023-07-20T15:57:30;22.30;95.10
3713;DHT22;1872;51.406;6.856;2023-07-20T15:59:56;22.30;94.80
3713;DHT22;1872;51.406;6.856;2023-07-20T16:02:22;22.30;94.80
3713;DHT22;1872;51.406;6.856;2023-07-20T16:04:47;22.40;95.20
3713;DHT22;1872;51.406;6.856;2023-07-20T16:07:13;22.40;95.80
3713;DHT22;1872;51.406;6.856;2023-07-20T16:09:39;22.50;96.20
3713;DHT22;1872;51.406;6.856;2023-07-20T16:12:06;22.50;96.20
3713;DHT22;1872;51.406;6.856;2023-07-20T16:14:31;22.50;96.50
3713;DHT22;1872;51.406;6.856;2023-07-20T16:16:57;22.50;96.10
3713;DHT22;1872;51.406;6.856;2023-07-20T16:19:23;22.50;95.90
3713;DHT22;1872;51.406;6.856;2023-07-20T16:21:48;22.40;95.70